Time;durP1;ratioP1;P1;durP2;ratioP2;P2;SDS_P1;SDS_P2;PMS_P1;PMS_P2;Temp;Humidity;BMP_temperature;BMP_pressure;BME280_temperature;BME280_humidity;BME280_pressure;Samples;Min_cycle;Max_cycle;Signal;HPM_P1;HPM_P2
2020/12/19 00:00:35;;;;;;;48.35;27.52;;;10.90;99.90;;;;;;4778824;30;20032;-88
2020/12/19 00:03:02;;;;;;;43.78;26.85;;;10.90;99.90;;;;;;4781643;29;20096;-76
2020/12/19 00:05:41;;;;;;;48.42;27.30;;;10.90;99.90;;;;;;4783480;29;20428;-78
2020/12/19 00:08:34;;;;;;;41.00;24.65;;;10.90;99.90;;;;;;4780673;30;20417;-76
2020/12/19 00:11:27;;;;;;;38.95;24.38;;;10.90;99.90;;;;;;4779413;30;20128;-78
2020/12/19 00:14:20;;;;;;;44.50;24.73;;;10.90;99.90;;;;;;4779668;29;20289;-77
2020/12/19 00:17:06;;;;;;;45.92;24.77;;;10.90;99.90;;;;;;4779145;29;20027;-77
2020/12/19 00:19:36;;;;;;;54.38;27.88;;;10.90;99.90;;;;;;4773632;30;20031;-81
2020/12/19 00:22:05;;;;;;;58.92;30.08;;;10.90;99.90;;;;;;4782862;29;20030;-77
2020/12/19 00:24:32;;;;;;;52.60;29.10;;;10.90;99.90;;;;;;4782505;29;20050;-76
2020/12/19 00:26:58;;;;;;;56.03;29.75;;;10.90;99.90;;;;;;4779054;29;20032;-76
2020/12/19 00:29:24;;;;;;;46.28;27.35;;;10.80;99.90;;;;;;4782770;30;20070;-76
2020/12/19 00:31:50;;;;;;;53.33;27.05;;;10.80;99.90;;;;;;4782461;29;20062;-77
2020/12/19 00:34:18;;;;;;;53.53;28.90;;;10.90;99.90;;;;;;4783421;30;20035;-76
2020/12/19 00:36:44;;;;;;;47.10;27.08;;;10.80;99.90;;;;;;4782732;29;20055;-77
2020/12/19 00:39:11;;;;;;;53.75;27.05;;;10.90;99.90;;;;;;4781500;29;20830;-77
2020/12/19 00:41:37;;;;;;;48.47;28.67;;;10.80;99.90;;;;;;4781292;29;20039;-79
2020/12/19 00:44:03;;;;;;;51.40;26.67;;;10.80;99.90;;;;;;4785917;29;20109;-77
2020/12/19 00:46:29;;;;;;;52.17;26.85;;;10.80;99.90;;;;;;4780535;30;20027;-77
2020/12/19 00:48:56;;;;;;;48.15;26.35;;;10.80;99.90;;;;;;4784946;29;20035;-82
2020/12/19 00:51:23;;;;;;;47.25;25.58;;;10.90;99.90;;;;;;4787360;30;20084;-76
2020/12/19 00:53:50;;;;;;;47.03;25.77;;;10.90;99.90;;;;;;4786953;30;20042;-77
2020/12/19 00:56:24;;;;;;;42.78;23.58;;;10.90;99.90;;;;;;4785093;29;20395;-86
2020/12/19 00:58:52;;;;;;;46.63;24.25;;;10.90;99.90;;;;;;4786678;30;20581;-89
2020/12/19 01:01:21;;;;;;;46.10;24.23;;;10.80;99.90;;;;;;4786604;30;20161;-76
2020/12/19 01:03:48;;;;;;;38.78;22.95;;;10.90;99.90;;;;;;4781308;30;20083;-76
2020/12/19 01:06:17;;;;;;;46.20;23.33;;;10.90;99.90;;;;;;4784300;29;20632;-76
2020/12/19 01:08:54;;;;;;;43.70;22.77;;;10.80;99.90;;;;;;4785094;29;20058;-76
2020/12/19 01:11:22;;;;;;;40.15;22.33;;;10.80;99.90;;;;;;4786414;29;20020;-77
2020/12/19 01:13:48;;;;;;;41.47;22.55;;;10.80;99.90;;;;;;4786339;29;20114;-87
2020/12/19 01:16:16;;;;;;;38.20;22.17;;;10.80;99.90;;;;;;4784963;29;20360;-77
2020/12/19 01:18:46;;;;;;;44.53;22.73;;;10.80;99.90;;;;;;4786637;30;20031;-77
2020/12/19 01:21:21;;;;;;;41.28;21.30;;;10.70;99.90;;;;;;4785956;30;20023;-76
2020/12/19 01:23:48;;;;;;;38.08;21.70;;;10.80;99.90;;;;;;4770262;30;20043;-77
2020/12/19 01:26:15;;;;;;;41.08;22.02;;;10.80;99.90;;;;;;4784158;29;20038;-76
2020/12/19 01:28:43;;;;;;;47.30;24.98;;;10.80;99.90;;;;;;4781697;30;20119;-76
2020/12/19 01:31:12;;;;;;;42.13;22.52;;;10.70;99.90;;;;;;4785534;29;20031;-76
2020/12/19 01:33:38;;;;;;;39.00;22.02;;;10.70;99.90;;;;;;4783994;29;20390;-77
2020/12/19 01:36:09;;;;;;;42.75;21.95;;;10.80;99.90;;;;;;4785234;29;20190;-77
2020/12/19 01:38:36;;;;;;;58.40;23.05;;;10.80;99.90;;;;;;4782130;30;20435;-77
2020/12/19 01:41:03;;;;;;;57.22;23.40;;;10.80;99.90;;;;;;4785094;29;20028;-77
2020/12/19 01:43:43;;;;;;;52.70;23.17;;;10.70;99.90;;;;;;4785416;30;20505;-77
2020/12/19 01:46:12;;;;;;;50.13;23.35;;;10.70;99.90;;;;;;4785225;29;20035;-76
2020/12/19 01:48:39;;;;;;;52.08;22.48;;;10.70;99.90;;;;;;4784946;29;20031;-83
2020/12/19 01:51:06;;;;;;;78.28;23.40;;;10.60;99.90;;;;;;4786331;29;20031;-83
2020/12/19 01:53:32;;;;;;;64.13;22.60;;;10.60;99.90;;;;;;4786380;30;20035;-76
2020/12/19 01:55:59;;;;;;;65.50;24.92;;;10.60;99.90;;;;;;4784296;30;20035;-85
2020/12/19 01:58:26;;;;;;;53.45;24.70;;;10.60;99.90;;;;;;4783238;30;20524;-90
2020/12/19 02:00:56;;;;;;;63.53;23.25;;;10.50;99.90;;;;;;4785536;29;20036;-89
2020/12/19 02:03:22;;;;;;;74.57;25.23;;;10.50;99.90;;;;;;4782509;29;20126;-91
2020/12/19 02:05:52;;;;;;;40.28;21.48;;;10.50;99.90;;;;;;4785460;29;20035;-76
2020/12/19 02:08:19;;;;;;;66.95;23.88;;;10.50;99.90;;;;;;4779176;29;20042;-77
2020/12/19 02:10:46;;;;;;;64.68;23.27;;;10.50;99.90;;;;;;4785385;29;20514;-90
2020/12/19 02:13:12;;;;;;;44.40;22.30;;;10.40;99.90;;;;;;4785244;29;20040;-76
2020/12/19 02:15:43;;;;;;;46.20;22.27;;;10.40;99.90;;;;;;4785993;30;20036;-77
2020/12/19 02:18:10;;;;;;;48.30;23.65;;;10.40;99.90;;;;;;4780271;29;20039;-85
2020/12/19 02:20:37;;;;;;;55.47;22.98;;;10.40;99.90;;;;;;4784067;29;20572;-84
2020/12/19 02:23:07;;;;;;;52.83;22.60;;;10.30;99.90;;;;;;4769244;30;20451;-88
2020/12/19 02:25:36;;;;;;;39.92;20.58;;;10.20;99.90;;;;;;4785560;29;20023;-90
2020/12/19 02:28:04;;;;;;;39.95;21.10;;;10.20;99.90;;;;;;4784881;29;20031;-87
2020/12/19 02:30:31;;;;;;;45.50;21.48;;;10.10;99.90;;;;;;4785003;29;20043;-76
2020/12/19 02:32:58;;;;;;;43.53;21.50;;;10.10;99.90;;;;;;4769199;30;20514;-76
2020/12/19 02:35:24;;;;;;;45.80;20.40;;;10.10;99.90;;;;;;4785058;29;20031;-90
2020/12/19 02:37:50;;;;;;;39.78;20.38;;;10.00;99.90;;;;;;4783088;29;20035;-76
2020/12/19 02:40:17;;;;;;;39.60;20.05;;;10.00;99.90;;;;;;4783060;29;20490;-77
2020/12/19 02:42:44;;;;;;;35.25;19.38;;;9.90;99.90;;;;;;4785270;29;20040;-81
2020/12/19 02:45:11;;;;;;;38.60;19.75;;;9.90;99.90;;;;;;4774854;29;20582;-77
2020/12/19 02:47:39;;;;;;;40.28;20.67;;;9.80;99.90;;;;;;4784839;30;20110;-88
2020/12/19 02:50:06;;;;;;;35.75;19.38;;;9.70;99.90;;;;;;4783328;29;20023;-90
2020/12/19 02:52:32;;;;;;;40.00;20.83;;;9.80;99.90;;;;;;4785973;29;20034;-79
2020/12/19 02:54:59;;;;;;;37.00;20.52;;;9.80;99.90;;;;;;4786181;29;20102;-78
2020/12/19 02:57:25;;;;;;;35.45;18.45;;;9.80;99.90;;;;;;4784301;30;20102;-87
2020/12/19 02:59:51;;;;;;;33.83;18.42;;;9.80;99.90;;;;;;4755181;30;20035;-77
2020/12/19 03:02:17;;;;;;;35.53;18.05;;;9.80;99.90;;;;;;4785971;29;20084;-89
2020/12/19 03:04:43;;;;;;;36.03;17.83;;;9.80;99.90;;;;;;4785919;30;20066;-77
2020/12/19 03:07:09;;;;;;;39.72;20.60;;;9.70;99.90;;;;;;4785637;29;20136;-76
2020/12/19 03:09:35;;;;;;;38.15;20.00;;;9.70;99.90;;;;;;4797753;29;20071;-86
2020/12/19 03:12:03;;;;;;;37.55;19.98;;;9.70;99.90;;;;;;4785110;29;20039;-76
2020/12/19 03:14:30;;;;;;;41.42;20.83;;;9.70;99.90;;;;;;4785447;29;20165;-76
2020/12/19 03:16:56;;;;;;;38.75;20.58;;;9.70;99.90;;;;;;4785661;29;20060;-89
2020/12/19 03:19:34;;;;;;;39.95;19.95;;;9.70;99.90;;;;;;4783843;30;20063;-87
2020/12/19 03:22:01;;;;;;;46.97;20.38;;;9.70;99.90;;;;;;4768508;30;20039;-88
2020/12/19 03:24:27;;;;;;;35.10;19.73;;;9.70;99.90;;;;;;4767736;30;20165;-90
2020/12/19 03:26:53;;;;;;;34.42;19.35;;;9.70;99.90;;;;;;4767796;30;20031;-84
2020/12/19 03:29:19;;;;;;;32.78;17.92;;;9.70;99.90;;;;;;4774126;30;20406;-88
2020/12/19 03:31:45;;;;;;;32.38;17.63;;;9.70;99.90;;;;;;4782230;30;20483;-89
2020/12/19 03:34:11;;;;;;;40.60;20.65;;;9.70;99.90;;;;;;4785247;29;20039;-77
2020/12/19 03:36:37;;;;;;;38.40;19.25;;;9.70;99.90;;;;;;4785472;30;20027;-88
2020/12/19 03:39:04;;;;;;;34.22;19.85;;;9.80;99.90;;;;;;4785186;29;20027;-76
2020/12/19 03:41:30;;;;;;;34.63;19.08;;;9.70;99.90;;;;;;4778530;29;20529;-76
2020/12/19 03:43:56;;;;;;;35.22;17.50;;;9.80;99.90;;;;;;4767187;30;20043;-86
2020/12/19 03:46:22;;;;;;;41.35;19.90;;;9.70;99.90;;;;;;4767451;30;20399;-77
2020/12/19 03:48:48;;;;;;;43.75;20.95;;;9.70;99.90;;;;;;4767347;30;20495;-77
2020/12/19 03:51:14;;;;;;;37.05;19.90;;;9.70;99.90;;;;;;4782476;29;20027;-82
2020/12/19 03:53:40;;;;;;;39.40;20.13;;;9.70;99.90;;;;;;4785237;29;20032;-78
2020/12/19 03:56:07;;;;;;;92.97;24.65;;;9.80;99.90;;;;;;4785640;29;20043;-87
2020/12/19 03:58:34;;;;;;;37.92;18.95;;;9.80;99.90;;;;;;4785609;29;20039;-88
2020/12/19 04:01:00;;;;;;;32.55;18.13;;;9.80;99.90;;;;;;4772849;29;20039;-87
2020/12/19 04:03:26;;;;;;;34.20;18.13;;;9.80;99.90;;;;;;4767126;30;20040;-81
2020/12/19 04:05:52;;;;;;;29.70;18.80;;;9.80;99.90;;;;;;4767220;30;20036;-89
2020/12/19 04:08:18;;;;;;;38.22;20.25;;;9.80;99.90;;;;;;4767769;30;20046;-76
2020/12/19 04:10:44;;;;;;;36.10;19.85;;;9.90;99.90;;;;;;4775072;29;20058;-88
2020/12/19 04:13:10;;;;;;;35.50;19.70;;;10.00;99.90;;;;;;4767009;30;20031;-76
2020/12/19 04:15:36;;;;;;;37.72;19.20;;;10.00;99.90;;;;;;4767254;30;20111;-79
2020/12/19 04:18:02;;;;;;;36.42;18.77;;;10.00;99.90;;;;;;4766964;30;20110;-78
2020/12/19 04:20:28;;;;;;;31.92;17.33;;;10.00;99.90;;;;;;4770324;30;20038;-76
2020/12/19 04:22:54;;;;;;;35.60;19.08;;;10.10;99.90;;;;;;4786518;29;20043;-77
2020/12/19 04:25:20;;;;;;;35.30;18.05;;;10.00;99.90;;;;;;4788306;29;20483;-76
2020/12/19 04:27:46;;;;;;;34.67;19.70;;;10.10;99.90;;;;;;4788410;29;20038;-87
2020/12/19 04:30:12;;;;;;;31.63;18.08;;;10.10;99.90;;;;;;4788536;29;20491;-76
2020/12/19 04:32:39;;;;;;;43.55;19.75;;;10.10;99.90;;;;;;4771305;30;20462;-77
2020/12/19 04:35:06;;;;;;;38.20;19.92;;;10.10;99.90;;;;;;4770754;30;20039;-76
2020/12/19 04:37:32;;;;;;;36.75;18.52;;;10.10;99.90;;;;;;4770368;30;20075;-87
2020/12/19 04:39:58;;;;;;;32.33;18.33;;;10.10;99.90;;;;;;4770411;30;20035;-81
2020/12/19 04:42:24;;;;;;;30.20;18.10;;;10.10;99.90;;;;;;4770925;30;20106;-77
2020/12/19 04:44:50;;;;;;;34.45;18.75;;;10.10;99.90;;;;;;4771754;29;20057;-77
2020/12/19 04:47:17;;;;;;;36.22;18.88;;;10.10;99.90;;;;;;4770276;30;20031;-88
2020/12/19 04:49:44;;;;;;;35.70;19.92;;;10.10;99.90;;;;;;4770396;30;20511;-77
2020/12/19 04:52:10;;;;;;;32.10;20.50;;;10.10;99.90;;;;;;4770617;30;20550;-76
2020/12/19 04:54:37;;;;;;;34.13;18.77;;;10.10;99.90;;;;;;4787849;30;20410;-77
2020/12/19 04:57:03;;;;;;;38.05;19.27;;;10.10;99.90;;;;;;4788286;29;20114;-77
2020/12/19 04:59:30;;;;;;;33.45;17.95;;;10.10;99.90;;;;;;4788392;29;20114;-88
2020/12/19 05:01:56;;;;;;;33.72;18.55;;;10.10;99.90;;;;;;4787911;29;20032;-80
2020/12/19 05:04:24;;;;;;;31.55;18.58;;;10.20;99.90;;;;;;4778683;29;20490;-78
2020/12/19 05:06:50;;;;;;;38.78;18.02;;;10.20;99.90;;;;;;4787841;30;20035;-77
2020/12/19 05:09:16;;;;;;;31.13;17.95;;;10.20;99.90;;;;;;4787488;29;20142;-86
2020/12/19 05:11:43;;;;;;;34.85;19.83;;;10.20;99.90;;;;;;4787899;30;20553;-77
2020/12/19 05:14:09;;;;;;;37.70;19.92;;;10.10;99.90;;;;;;4800851;29;20375;-76
2020/12/19 05:16:35;;;;;;;34.72;19.75;;;10.10;99.90;;;;;;4787650;30;20080;-76
2020/12/19 05:19:09;;;;;;;30.25;18.40;;;10.10;99.90;;;;;;4787683;29;20033;-89
2020/12/19 05:21:48;;;;;;;33.88;19.00;;;10.10;99.90;;;;;;4787380;29;20038;-87
2020/12/19 05:24:15;;;;;;;34.88;18.77;;;10.10;99.90;;;;;;4787060;29;20069;-80
2020/12/19 05:26:43;;;;;;;37.22;19.50;;;10.10;99.90;;;;;;4773922;30;20024;-88
2020/12/19 05:29:10;;;;;;;33.45;17.35;;;10.10;99.90;;;;;;4753705;30;20036;-77
2020/12/19 05:31:36;;;;;;;31.88;18.15;;;10.10;99.90;;;;;;4769866;30;20097;-77
2020/12/19 05:34:04;;;;;;;28.50;17.55;;;10.00;99.90;;;;;;4772538;30;20049;-83
2020/12/19 05:36:30;;;;;;;31.33;17.17;;;10.10;99.90;;;;;;4786997;29;20092;-77
2020/12/19 05:39:01;;;;;;;32.25;17.33;;;10.10;99.90;;;;;;4787659;30;20046;-84
2020/12/19 05:41:28;;;;;;;33.83;17.95;;;10.10;99.90;;;;;;4774312;30;20043;-76
2020/12/19 05:43:54;;;;;;;29.02;17.73;;;10.10;99.90;;;;;;4768863;30;20040;-84
2020/12/19 05:46:40;;;;;;;28.73;16.15;;;10.10;99.90;;;;;;4786820;30;20085;-80
2020/12/19 05:49:10;;;;;;;31.73;16.67;;;10.10;99.90;;;;;;4787453;29;20506;-82
2020/12/19 05:51:42;;;;;;;34.67;17.85;;;10.00;99.90;;;;;;4787462;29;20089;-89
2020/12/19 05:54:10;;;;;;;29.00;15.70;;;10.10;99.90;;;;;;4787360;29;20035;-84
2020/12/19 05:56:48;;;;;;;27.02;15.95;;;10.10;99.90;;;;;;4776575;29;20031;-88
2020/12/19 05:59:18;;;;;;;27.80;15.38;;;10.10;99.90;;;;;;4769458;30;20093;-77
2020/12/19 06:01:49;;;;;;;29.80;15.77;;;10.20;99.90;;;;;;4769192;30;20027;-81
2020/12/19 06:04:17;;;;;;;30.00;15.85;;;10.20;99.90;;;;;;4769133;30;20065;-87
2020/12/19 06:06:46;;;;;;;30.25;14.63;;;10.20;99.90;;;;;;4755195;30;20032;-77
2020/12/19 06:09:14;;;;;;;27.70;16.08;;;10.20;99.90;;;;;;4768779;30;20087;-78
2020/12/19 06:11:54;;;;;;;31.50;15.77;;;10.20;99.90;;;;;;4768919;30;20046;-77
2020/12/19 06:14:25;;;;;;;32.10;17.45;;;10.30;99.90;;;;;;4768695;30;20475;-77
2020/12/19 06:16:58;;;;;;;33.70;18.00;;;10.30;99.90;;;;;;4775849;30;20035;-77
2020/12/19 06:19:24;;;;;;;29.95;17.88;;;10.40;99.90;;;;;;4786708;29;20043;-77
2020/12/19 06:21:55;;;;;;;30.08;17.13;;;10.40;99.90;;;;;;4786489;30;20110;-77
2020/12/19 06:24:44;;;;;;;32.97;18.35;;;10.50;99.90;;;;;;4785997;29;20062;-90
2020/12/19 06:27:17;;;;;;;32.05;18.48;;;10.50;99.90;;;;;;4778126;29;20110;-77
2020/12/19 06:29:44;;;;;;;33.33;18.02;;;10.50;99.90;;;;;;4786404;29;20043;-77
2020/12/19 06:32:23;;;;;;;33.95;18.58;;;10.50;99.90;;;;;;4786570;30;20555;-77
2020/12/19 06:35:25;;;;;;;35.03;20.40;;;10.60;99.90;;;;;;4786221;30;20054;-78
2020/12/19 06:37:51;;;;;;;34.72;19.00;;;10.60;99.90;;;;;;4758371;30;20054;-90
2020/12/19 06:40:19;;;;;;;38.30;19.55;;;10.60;99.90;;;;;;4768427;30;20039;-90
2020/12/19 06:42:48;;;;;;;36.50;19.25;;;10.60;99.90;;;;;;4768226;30;20096;-77
2020/12/19 06:45:30;;;;;;;39.00;19.67;;;10.60;99.90;;;;;;4767911;30;20067;-77
2020/12/19 06:47:59;;;;;;;35.33;19.90;;;10.60;99.90;;;;;;4775637;30;20112;-81
2020/12/19 06:50:55;;;;;;;35.75;20.30;;;10.50;99.90;;;;;;4785985;29;20110;-77
2020/12/19 06:53:21;;;;;;;37.67;19.92;;;10.50;99.90;;;;;;4785718;29;20050;-77
2020/12/19 06:55:47;;;;;;;40.47;20.50;;;10.40;99.90;;;;;;4785937;29;20023;-77
2020/12/19 06:58:27;;;;;;;39.28;21.40;;;10.50;99.90;;;;;;4775062;29;20162;-88
2020/12/19 07:00:53;;;;;;;37.97;22.42;;;10.50;99.90;;;;;;4768437;30;20027;-77
2020/12/19 07:03:38;;;;;;;40.67;21.30;;;10.50;99.90;;;;;;4768155;30;20119;-77
2020/12/19 07:06:09;;;;;;;40.22;21.63;;;10.60;99.90;;;;;;4782259;29;20059;-77
2020/12/19 07:08:36;;;;;;;38.95;19.08;;;10.60;99.90;;;;;;4785234;29;20147;-77
2020/12/19 07:11:03;;;;;;;41.50;21.55;;;10.70;99.90;;;;;;4785801;29;20083;-78
2020/12/19 07:13:51;;;;;;;41.90;21.40;;;10.70;99.90;;;;;;4785321;30;20062;-77
2020/12/19 07:16:48;;;;;;;38.55;22.38;;;10.70;99.90;;;;;;4785831;29;20027;-77
2020/12/19 07:19:19;;;;;;;48.05;22.17;;;10.80;99.90;;;;;;4773715;29;20051;-77
2020/12/19 07:21:45;;;;;;;41.35;21.60;;;10.90;99.90;;;;;;4767586;30;20056;-77
2020/12/19 07:24:12;;;;;;;42.75;21.13;;;10.90;99.90;;;;;;4780410;29;20085;-76
2020/12/19 07:26:39;;;;;;;41.38;20.85;;;11.00;99.90;;;;;;4781893;30;20120;-84
2020/12/19 07:29:16;;;;;;;38.38;21.58;;;11.00;99.90;;;;;;4785026;29;20035;-77
2020/12/19 07:31:52;;;;;;;44.00;22.35;;;11.10;99.90;;;;;;4785273;29;20118;-90
2020/12/19 07:34:19;;;;;;;38.35;22.52;;;11.10;99.90;;;;;;4767707;30;20067;-76
2020/12/19 07:36:47;;;;;;;41.63;22.08;;;11.20;99.90;;;;;;4770194;30;20032;-77
2020/12/19 07:39:15;;;;;;;42.13;23.77;;;11.20;99.90;;;;;;4778009;29;20494;-80
2020/12/19 07:42:08;;;;;;;43.72;23.13;;;11.20;99.90;;;;;;4784234;29;20394;-86
2020/12/19 07:44:35;;;;;;;42.22;23.00;;;11.30;99.90;;;;;;4785235;29;20051;-89
2020/12/19 07:47:12;;;;;;;36.20;22.08;;;11.40;99.90;;;;;;4785141;29;20027;-89
2020/12/19 07:49:49;;;;;;;39.38;24.13;;;11.40;99.90;;;;;;4785230;29;20114;-77
2020/12/19 07:52:21;;;;;;;44.17;24.90;;;11.50;99.90;;;;;;4785499;29;20490;-77
2020/12/19 07:55:03;;;;;;;58.03;31.17;;;11.50;99.90;;;;;;4785117;29;20024;-80
2020/12/19 07:57:30;;;;;;;42.33;23.83;;;11.50;99.90;;;;;;4786623;29;20027;-77
2020/12/19 07:59:57;;;;;;;45.13;24.52;;;11.70;99.90;;;;;;4781346;29;20491;-88
2020/12/19 08:02:24;;;;;;;42.60;22.55;;;11.80;99.90;;;;;;4772981;30;20043;-76
2020/12/19 08:04:55;;;;;;;43.10;22.50;;;11.80;99.90;;;;;;4757374;30;20039;-88
2020/12/19 08:07:25;;;;;;;38.80;21.90;;;11.90;99.90;;;;;;4775410;30;20368;-90
2020/12/19 08:10:03;;;;;;;39.55;22.65;;;12.00;99.90;;;;;;4778924;30;20053;-77
2020/12/19 08:12:30;;;;;;;40.72;24.05;;;12.10;99.90;;;;;;4791293;29;20122;-78
2020/12/19 08:14:57;;;;;;;33.35;19.75;;;12.10;99.90;;;;;;4790632;29;20506;-91
2020/12/19 08:17:25;;;;;;;36.53;20.60;;;12.20;99.90;;;;;;4781031;29;20348;-78
2020/12/19 08:19:55;;;;;;;36.00;19.80;;;12.20;99.90;;;;;;4772994;30;20479;-77
2020/12/19 08:22:22;;;;;;;32.92;18.65;;;12.20;99.90;;;;;;4773107;30;20042;-76
2020/12/19 08:24:50;;;;;;;35.35;19.05;;;12.20;99.90;;;;;;4773119;30;20047;-77
2020/12/19 08:27:26;;;;;;;35.97;20.45;;;12.30;99.90;;;;;;4776265;30;20613;-84
2020/12/19 08:30:20;;;;;;;39.78;22.05;;;12.30;99.90;;;;;;4773022;30;20039;-76
2020/12/19 08:32:56;;;;;;;28.85;17.35;;;12.40;99.90;;;;;;4773091;30;20031;-90
2020/12/19 08:35:56;;;;;;;27.98;17.05;;;12.50;99.90;;;;;;4790445;30;20126;-76
2020/12/19 08:38:26;;;;;;;26.27;16.58;;;12.60;99.90;;;;;;4751819;30;20453;-77
2020/12/19 08:41:00;;;;;;;35.63;19.52;;;12.70;99.90;;;;;;4772703;30;20048;-77
2020/12/19 08:43:33;;;;;;;;;;;12.70;99.90;;;;;;4789912;29;20406;-84
2020/12/19 08:46:10;;;;;;;31.40;18.33;;;12.80;99.90;;;;;;4791015;29;19944;-79
2020/12/19 08:48:37;;;;;;;29.25;16.80;;;13.00;99.90;;;;;;4783723;30;20548;-78
2020/12/19 08:51:18;;;;;;;30.98;18.45;;;13.00;99.90;;;;;;4773362;30;20036;-77
2020/12/19 08:53:44;;;;;;;28.40;17.63;;;13.10;99.90;;;;;;4788299;29;20035;-77
2020/12/19 08:56:25;;;;;;;22.70;15.35;;;13.20;99.90;;;;;;4789474;29;20032;-77
2020/12/19 08:58:55;;;;;;;31.95;18.17;;;13.30;99.90;;;;;;4790130;29;20035;-84
2020/12/19 09:01:22;;;;;;;28.80;16.48;;;13.50;99.90;;;;;;4790602;29;20032;-77
2020/12/19 09:03:48;;;;;;;25.15;14.80;;;13.60;99.90;;;;;;4789896;30;20061;-77
2020/12/19 09:06:16;;;;;;;28.73;17.30;;;13.60;99.90;;;;;;4790260;29;20486;-77
2020/12/19 09:08:47;;;;;;;26.85;16.58;;;13.50;99.90;;;;;;4786304;29;20041;-88
2020/12/19 09:11:23;;;;;;;25.27;14.73;;;13.50;99.90;;;;;;4769772;30;20085;-77
2020/12/19 09:13:50;;;;;;;26.98;15.35;;;13.50;99.90;;;;;;4780137;29;20039;-75
2020/12/19 09:16:16;;;;;;;27.35;15.85;;;13.50;99.90;;;;;;4787036;30;20073;-78
2020/12/19 09:18:43;;;;;;;25.05;14.90;;;13.60;99.90;;;;;;4787494;30;20059;-87
2020/12/19 09:21:14;;;;;;;22.67;14.50;;;13.80;99.90;;;;;;4769811;30;20070;-77
2020/12/19 09:23:40;;;;;;;27.50;15.07;;;13.90;99.90;;;;;;4769506;30;20067;-83
2020/12/19 09:26:06;;;;;;;23.58;14.48;;;13.90;99.90;;;;;;4769441;30;20070;-90
2020/12/19 09:28:33;;;;;;;26.70;15.68;;;14.00;99.90;;;;;;4773530;29;20035;-77
2020/12/19 09:30:59;;;;;;;29.00;16.13;;;14.20;99.90;;;;;;4791316;29;20126;-77
2020/12/19 09:33:26;;;;;;;27.65;16.20;;;14.40;99.90;;;;;;4787225;29;20032;-81
2020/12/19 09:35:53;;;;;;;24.20;14.80;;;14.50;99.90;;;;;;4786948;30;20110;-77
2020/12/19 09:38:20;;;;;;;27.13;14.95;;;14.70;99.90;;;;;;4769325;30;20101;-85
2020/12/19 09:40:46;;;;;;;26.30;14.35;;;14.90;99.90;;;;;;4779582;29;20439;-89
2020/12/19 09:43:12;;;;;;;27.83;16.33;;;15.10;99.90;;;;;;4786857;29;20083;-76
2020/12/19 09:45:39;;;;;;;22.13;13.13;;;15.20;99.90;;;;;;4787198;29;20502;-77
2020/12/19 09:48:05;;;;;;;20.23;12.27;;;15.40;99.90;;;;;;4762694;30;20036;-77
2020/12/19 09:50:32;;;;;;;18.95;12.25;;;15.50;99.90;;;;;;4780404;29;20127;-86
2020/12/19 09:52:58;;;;;;;19.50;12.43;;;15.70;99.90;;;;;;4769215;30;20032;-82
2020/12/19 09:55:27;;;;;;;22.13;13.27;;;15.90;99.90;;;;;;4768915;30;20036;-77
2020/12/19 09:57:53;;;;;;;22.02;13.25;;;16.10;99.90;;;;;;4769594;30;20023;-77
2020/12/19 10:00:19;;;;;;;18.38;12.45;;;16.20;99.90;;;;;;4771094;30;20047;-76
2020/12/19 10:02:46;;;;;;;17.65;11.85;;;16.30;99.90;;;;;;4786213;29;20031;-76
2020/12/19 10:05:13;;;;;;;11.07;6.88;;;16.50;99.90;;;;;;4786895;29;20114;-86
2020/12/19 10:07:39;;;;;;;11.15;6.07;;;16.60;99.90;;;;;;4786711;29;20391;-77
2020/12/19 10:10:06;;;;;;;9.88;6.15;;;16.60;99.90;;;;;;4786535;29;20085;-77
2020/12/19 10:12:33;;;;;;;8.07;5.78;;;16.80;99.90;;;;;;4783309;30;20175;-91
2020/12/19 10:14:59;;;;;;;9.70;5.82;;;16.90;99.90;;;;;;4777056;29;20078;-85
2020/12/19 10:17:26;;;;;;;9.98;5.90;;;17.00;99.90;;;;;;4784360;29;20035;-89
2020/12/19 10:19:52;;;;;;;10.80;6.85;;;17.20;99.90;;;;;;4785295;29;20020;-90
2020/12/19 10:22:18;;;;;;;11.25;6.07;;;17.20;99.90;;;;;;4783081;30;20126;-89
2020/12/19 10:24:44;;;;;;;8.93;6.25;;;17.40;99.90;;;;;;4777072;30;20055;-89
2020/12/19 10:27:10;;;;;;;11.82;6.78;;;17.60;99.90;;;;;;4786119;29;20088;-82
2020/12/19 10:29:36;;;;;;;15.50;7.82;;;17.50;99.90;;;;;;4769682;30;20043;-89
2020/12/19 10:32:10;;;;;;;12.80;6.43;;;17.50;99.90;;;;;;4768614;29;20024;-80
2020/12/19 10:34:36;;;;;;;12.95;6.65;;;17.10;99.90;;;;;;4790224;29;20386;-81
2020/12/19 10:37:02;;;;;;;16.27;8.27;;;16.90;99.90;;;;;;4781465;29;20058;-78
2020/12/19 10:39:28;;;;;;;13.43;7.30;;;16.60;99.90;;;;;;4791096;29;20482;-76
2020/12/19 10:41:55;;;;;;;12.80;7.03;;;16.40;99.90;;;;;;4773205;30;20376;-77
2020/12/19 10:44:21;;;;;;;12.40;7.72;;;16.20;99.90;;;;;;4783693;30;20039;-79
2020/12/19 10:46:47;;;;;;;11.73;6.93;;;16.10;99.90;;;;;;4782229;29;20032;-79
2020/12/19 10:49:14;;;;;;;15.00;8.02;;;16.00;99.90;;;;;;4783989;29;20037;-77
2020/12/19 10:51:40;;;;;;;13.60;7.85;;;15.90;99.90;;;;;;4783050;29;20024;-78
2020/12/19 10:54:06;;;;;;;11.88;7.15;;;15.90;99.90;;;;;;4782599;29;20030;-77
2020/12/19 10:56:32;;;;;;;11.55;5.88;;;15.80;99.90;;;;;;4784015;30;20039;-76
2020/12/19 10:58:58;;;;;;;10.05;6.10;;;15.70;99.90;;;;;;4779549;29;20034;-77
2020/12/19 11:01:24;;;;;;;13.10;8.32;;;15.70;99.90;;;;;;4782793;30;20035;-77
2020/12/19 11:03:51;;;;;;;14.43;8.68;;;15.90;99.90;;;;;;4781820;29;20109;-80
2020/12/19 11:06:25;;;;;;;12.00;6.90;;;16.00;99.90;;;;;;4783045;30;20031;-80
2020/12/19 11:08:56;;;;;;;9.93;5.93;;;16.20;99.90;;;;;;4781925;29;20511;-80
2020/12/19 11:11:25;;;;;;;10.23;5.82;;;16.30;99.90;;;;;;4782076;29;20065;-77
2020/12/19 11:13:51;;;;;;;9.55;5.72;;;16.40;99.90;;;;;;4779899;29;20039;-77
2020/12/19 11:16:28;;;;;;;11.20;5.82;;;16.40;99.90;;;;;;4766816;30;20028;-79
2020/12/19 11:18:55;;;;;;;9.80;5.10;;;16.30;99.90;;;;;;4782555;29;20043;-77
2020/12/19 11:21:22;;;;;;;18.05;5.85;;;16.00;99.90;;;;;;4782956;29;20061;-77
2020/12/19 11:23:48;;;;;;;6.53;4.40;;;16.10;99.90;;;;;;4780101;30;20035;-77
2020/12/19 11:26:20;;;;;;;7.43;4.25;;;16.20;99.90;;;;;;4764963;30;20035;-80
2020/12/19 11:28:48;;;;;;;8.70;5.18;;;16.20;99.90;;;;;;4782853;29;20035;-77
2020/12/19 11:31:15;;;;;;;7.00;4.55;;;16.10;99.90;;;;;;4782774;29;20058;-77
2020/12/19 11:33:42;;;;;;;11.07;6.95;;;16.10;99.90;;;;;;4779319;29;20522;-76
2020/12/19 11:36:08;;;;;;;11.48;7.40;;;16.10;99.90;;;;;;4781703;29;20038;-77
2020/12/19 11:38:34;;;;;;;9.38;5.57;;;16.00;99.90;;;;;;4782762;30;20027;-77
2020/12/19 11:41:00;;;;;;;8.90;5.95;;;16.00;99.90;;;;;;4784160;29;20092;-77
2020/12/19 11:43:26;;;;;;;9.98;5.40;;;15.90;99.90;;;;;;4782638;30;20031;-81
2020/12/19 11:45:52;;;;;;;7.50;4.32;;;15.80;99.90;;;;;;4780874;29;20157;-77
2020/12/19 11:48:19;;;;;;;9.82;5.05;;;15.80;99.90;;;;;;4778094;30;20042;-79
2020/12/19 11:50:45;;;;;;;10.55;5.35;;;15.60;99.90;;;;;;4778994;30;20045;-77
2020/12/19 11:53:11;;;;;;;13.90;6.30;;;15.60;99.90;;;;;;4776161;30;20051;-77
2020/12/19 11:55:37;;;;;;;6.78;4.20;;;15.60;99.90;;;;;;4779752;30;20027;-77
2020/12/19 11:58:03;;;;;;;7.47;4.38;;;15.50;99.90;;;;;;4779074;29;20073;-77
2020/12/19 12:00:29;;;;;;;7.75;4.50;;;15.40;99.90;;;;;;4782546;30;20172;-78
2020/12/19 12:02:55;;;;;;;9.18;4.38;;;15.40;99.90;;;;;;4774799;29;20399;-76
2020/12/19 12:05:22;;;;;;;6.93;4.35;;;15.40;99.90;;;;;;4777424;29;20035;-77
2020/12/19 12:07:48;;;;;;;8.55;6.18;;;15.40;99.90;;;;;;4777426;30;20563;-77
2020/12/19 12:10:14;;;;;;;7.85;5.68;;;15.50;99.90;;;;;;4779373;29;20063;-77
2020/12/19 12:12:40;;;;;;;16.52;8.23;;;15.50;99.90;;;;;;4782900;30;20410;-76
2020/12/19 12:15:06;;;;;;;16.63;7.90;;;15.50;99.90;;;;;;4780293;29;20027;-77
2020/12/19 12:17:33;;;;;;;14.32;9.60;;;15.60;99.90;;;;;;4779663;30;20501;-77
2020/12/19 12:19:59;;;;;;;16.15;10.68;;;15.60;99.90;;;;;;4780872;30;20043;-77
2020/12/19 12:22:25;;;;;;;13.55;9.80;;;15.70;99.90;;;;;;4782660;29;20063;-77
2020/12/19 12:24:51;;;;;;;13.88;9.00;;;15.70;99.90;;;;;;4782777;29;20546;-80
2020/12/19 12:27:17;;;;;;;10.63;7.38;;;15.70;99.90;;;;;;4779871;30;20046;-77
2020/12/19 12:29:43;;;;;;;12.13;5.63;;;15.80;99.90;;;;;;4782849;29;20125;-76
2020/12/19 12:32:09;;;;;;;8.77;5.30;;;15.80;99.90;;;;;;4782568;29;20108;-77
2020/12/19 12:34:35;;;;;;;9.02;5.28;;;15.80;99.90;;;;;;4781670;29;20516;-77
2020/12/19 12:37:02;;;;;;;11.75;6.53;;;15.80;99.90;;;;;;4781290;29;20035;-77
2020/12/19 12:39:28;;;;;;;10.18;7.68;;;15.80;99.90;;;;;;4782570;30;20106;-77